sensor_id;sensor_type;location;lat;lon;timestamp;P1;durP1;ratioP1;P2;durP2;ratioP2
22129;SDS011;11231;50.746;4.272;2023-05-23T00:01:21;57.30;;;27.30;;
22129;SDS011;11231;50.746;4.272;2023-05-23T00:03:48;63.80;;;30.07;;
22129;SDS011;11231;50.746;4.272;2023-05-23T00:06:20;62.17;;;29.57;;
22129;SDS011;11231;50.746;4.272;2023-05-23T00:08:46;69.33;;;30.40;;
22129;SDS011;11231;50.746;4.272;2023-05-23T00:11:12;65.10;;;30.27;;
22129;SDS011;11231;50.746;4.272;2023-05-23T00:13:38;65.30;;;29.63;;
22129;SDS011;11231;50.746;4.272;2023-05-23T00:16:04;65.70;;;30.13;;
22129;SDS011;11231;50.746;4.272;2023-05-23T00:18:34;67.97;;;31.57;;
22129;SDS011;11231;50.746;4.272;2023-05-23T00:21:07;64.20;;;28.97;;
22129;SDS011;11231;50.746;4.272;2023-05-23T00:23:34;74.07;;;30.47;;
22129;SDS011;11231;50.746;4.272;2023-05-23T00:25:59;60.80;;;29.20;;
22129;SDS011;11231;50.746;4.272;2023-05-23T00:28:25;63.47;;;29.83;;
22129;SDS011;11231;50.746;4.272;2023-05-23T00:30:52;71.53;;;29.77;;
22129;SDS011;11231;50.746;4.272;2023-05-23T00:33:17;66.13;;;29.07;;
22129;SDS011;11231;50.746;4.272;2023-05-23T00:35:46;68.87;;;29.90;;
22129;SDS011;11231;50.746;4.272;2023-05-23T00:38:13;65.90;;;30.63;;
22129;SDS011;11231;50.746;4.272;2023-05-23T00:40:38;69.80;;;30.17;;
22129;SDS011;11231;50.746;4.272;2023-05-23T00:43:04;72.70;;;30.37;;
22129;SDS011;11231;50.746;4.272;2023-05-23T00:45:32;67.40;;;29.17;;
22129;SDS011;11231;50.746;4.272;2023-05-23T00:47:58;67.60;;;29.37;;
22129;SDS011;11231;50.746;4.272;2023-05-23T00:50:25;67.70;;;29.67;;
22129;SDS011;11231;50.746;4.272;2023-05-23T00:52:55;70.73;;;29.23;;
22129;SDS011;11231;50.746;4.272;2023-05-23T00:55:23;77.90;;;31.50;;
22129;SDS011;11231;50.746;4.272;2023-05-23T00:57:49;63.63;;;29.23;;
22129;SDS011;11231;50.746;4.272;2023-05-23T01:00:19;65.00;;;28.27;;
22129;SDS011;11231;50.746;4.272;2023-05-23T01:02:47;70.83;;;29.60;;
22129;SDS011;11231;50.746;4.272;2023-05-23T01:05:15;71.60;;;29.77;;
22129;SDS011;11231;50.746;4.272;2023-05-23T01:07:42;69.90;;;30.17;;
22129;SDS011;11231;50.746;4.272;2023-05-23T01:10:12;75.83;;;31.53;;
22129;SDS011;11231;50.746;4.272;2023-05-23T01:15:29;77.40;;;32.67;;
22129;SDS011;11231;50.746;4.272;2023-05-23T01:20:48;82.63;;;34.37;;
22129;SDS011;11231;50.746;4.272;2023-05-23T01:26:21;89.10;;;36.30;;
22129;SDS011;11231;50.746;4.272;2023-05-23T01:29:18;86.83;;;36.27;;
22129;SDS011;11231;50.746;4.272;2023-05-23T01:31:49;98.67;;;36.20;;
22129;SDS011;11231;50.746;4.272;2023-05-23T01:34:18;82.40;;;32.97;;
22129;SDS011;11231;50.746;4.272;2023-05-23T01:36:48;84.20;;;34.50;;
22129;SDS011;11231;50.746;4.272;2023-05-23T01:39:18;74.00;;;33.67;;
22129;SDS011;11231;50.746;4.272;2023-05-23T01:41:44;74.17;;;33.40;;
22129;SDS011;11231;50.746;4.272;2023-05-23T01:44:10;80.47;;;34.20;;
22129;SDS011;11231;50.746;4.272;2023-05-23T01:46:37;78.67;;;34.00;;
22129;SDS011;11231;50.746;4.272;2023-05-23T01:49:03;73.17;;;33.93;;
22129;SDS011;11231;50.746;4.272;2023-05-23T01:51:31;72.53;;;31.73;;
22129;SDS011;11231;50.746;4.272;2023-05-23T01:53:58;67.83;;;31.43;;
22129;SDS011;11231;50.746;4.272;2023-05-23T01:56:26;77.17;;;32.80;;
22129;SDS011;11231;50.746;4.272;2023-05-23T01:58:53;71.47;;;33.07;;
22129;SDS011;11231;50.746;4.272;2023-05-23T02:01:20;69.40;;;32.70;;
22129;SDS011;11231;50.746;4.272;2023-05-23T02:03:46;69.60;;;31.57;;
22129;SDS011;11231;50.746;4.272;2023-05-23T02:06:12;74.17;;;32.93;;
22129;SDS011;11231;50.746;4.272;2023-05-23T02:08:37;72.70;;;33.33;;
22129;SDS011;11231;50.746;4.272;2023-05-23T02:11:03;70.73;;;33.37;;
22129;SDS011;11231;50.746;4.272;2023-05-23T02:13:29;78.90;;;33.97;;
22129;SDS011;11231;50.746;4.272;2023-05-23T02:15:55;67.20;;;33.23;;
22129;SDS011;11231;50.746;4.272;2023-05-23T02:18:21;68.00;;;32.87;;
22129;SDS011;11231;50.746;4.272;2023-05-23T02:20:50;67.47;;;33.70;;
22129;SDS011;11231;50.746;4.272;2023-05-23T02:23:16;73.70;;;34.37;;
22129;SDS011;11231;50.746;4.272;2023-05-23T02:25:42;77.07;;;35.40;;
22129;SDS011;11231;50.746;4.272;2023-05-23T02:28:08;82.57;;;34.93;;
22129;SDS011;11231;50.746;4.272;2023-05-23T02:30:35;77.37;;;35.30;;
22129;SDS011;11231;50.746;4.272;2023-05-23T02:33:05;67.00;;;33.17;;
22129;SDS011;11231;50.746;4.272;2023-05-23T02:35:32;61.40;;;30.40;;
22129;SDS011;11231;50.746;4.272;2023-05-23T02:37:59;64.03;;;31.63;;
22129;SDS011;11231;50.746;4.272;2023-05-23T02:40:25;62.83;;;30.67;;
22129;SDS011;11231;50.746;4.272;2023-05-23T02:42:51;58.17;;;28.93;;
22129;SDS011;11231;50.746;4.272;2023-05-23T02:45:17;58.10;;;28.90;;
22129;SDS011;11231;50.746;4.272;2023-05-23T02:47:42;49.73;;;25.23;;
22129;SDS011;11231;50.746;4.272;2023-05-23T02:50:08;46.33;;;23.57;;
22129;SDS011;11231;50.746;4.272;2023-05-23T02:52:35;49.10;;;23.77;;
22129;SDS011;11231;50.746;4.272;2023-05-23T02:55:01;47.03;;;23.93;;
22129;SDS011;11231;50.746;4.272;2023-05-23T02:57:30;42.07;;;20.97;;
22129;SDS011;11231;50.746;4.272;2023-05-23T02:59:56;37.33;;;19.33;;
22129;SDS011;11231;50.746;4.272;2023-05-23T03:02:23;34.40;;;19.00;;
22129;SDS011;11231;50.746;4.272;2023-05-23T03:04:48;32.97;;;18.07;;
22129;SDS011;11231;50.746;4.272;2023-05-23T03:07:15;34.73;;;18.43;;
22129;SDS011;11231;50.746;4.272;2023-05-23T03:09:40;32.07;;;17.70;;
22129;SDS011;11231;50.746;4.272;2023-05-23T03:12:06;37.13;;;17.77;;
22129;SDS011;11231;50.746;4.272;2023-05-23T03:14:32;36.40;;;18.40;;
22129;SDS011;11231;50.746;4.272;2023-05-23T03:16:58;39.47;;;18.27;;
22129;SDS011;11231;50.746;4.272;2023-05-23T03:19:24;34.90;;;18.43;;
22129;SDS011;11231;50.746;4.272;2023-05-23T03:21:50;40.00;;;18.67;;
22129;SDS011;11231;50.746;4.272;2023-05-23T03:24:16;41.97;;;19.50;;
22129;SDS011;11231;50.746;4.272;2023-05-23T03:26:42;41.30;;;18.80;;
22129;SDS011;11231;50.746;4.272;2023-05-23T03:29:10;37.53;;;18.70;;
22129;SDS011;11231;50.746;4.272;2023-05-23T03:31:36;41.40;;;19.63;;
22129;SDS011;11231;50.746;4.272;2023-05-23T03:34:03;37.63;;;19.00;;
22129;SDS011;11231;50.746;4.272;2023-05-23T03:36:31;37.93;;;18.53;;
22129;SDS011;11231;50.746;4.272;2023-05-23T03:38:58;40.53;;;19.83;;
22129;SDS011;11231;50.746;4.272;2023-05-23T03:41:24;40.73;;;18.83;;
22129;SDS011;11231;50.746;4.272;2023-05-23T03:43:51;41.40;;;19.90;;
22129;SDS011;11231;50.746;4.272;2023-05-23T03:46:16;42.40;;;21.20;;
22129;SDS011;11231;50.746;4.272;2023-05-23T03:48:43;45.70;;;21.63;;
22129;SDS011;11231;50.746;4.272;2023-05-23T03:51:09;42.40;;;22.67;;
22129;SDS011;11231;50.746;4.272;2023-05-23T03:53:37;45.23;;;23.47;;
22129;SDS011;11231;50.746;4.272;2023-05-23T03:56:03;44.17;;;23.07;;
22129;SDS011;11231;50.746;4.272;2023-05-23T03:58:30;37.87;;;22.10;;
22129;SDS011;11231;50.746;4.272;2023-05-23T04:01:00;41.50;;;21.70;;
22129;SDS011;11231;50.746;4.272;2023-05-23T04:03:28;47.33;;;23.47;;
22129;SDS011;11231;50.746;4.272;2023-05-23T04:05:57;45.50;;;24.67;;
22129;SDS011;11231;50.746;4.272;2023-05-23T04:08:26;43.43;;;23.83;;
22129;SDS011;11231;50.746;4.272;2023-05-23T04:10:53;46.37;;;24.60;;
22129;SDS011;11231;50.746;4.272;2023-05-23T04:13:21;49.93;;;25.60;;
22129;SDS011;11231;50.746;4.272;2023-05-23T04:15:49;54.27;;;25.63;;
22129;SDS011;11231;50.746;4.272;2023-05-23T04:18:17;54.43;;;25.93;;
22129;SDS011;11231;50.746;4.272;2023-05-23T04:20:43;52.17;;;26.60;;
22129;SDS011;11231;50.746;4.272;2023-05-23T04:23:11;61.30;;;27.27;;
22129;SDS011;11231;50.746;4.272;2023-05-23T04:25:39;66.30;;;28.80;;
22129;SDS011;11231;50.746;4.272;2023-05-23T04:28:31;57.03;;;28.30;;
22129;SDS011;11231;50.746;4.272;2023-05-23T04:30:58;58.73;;;29.43;;
22129;SDS011;11231;50.746;4.272;2023-05-23T04:33:29;63.73;;;30.13;;
22129;SDS011;11231;50.746;4.272;2023-05-23T04:35:55;57.80;;;30.27;;
22129;SDS011;11231;50.746;4.272;2023-05-23T04:38:22;53.20;;;30.73;;
22129;SDS011;11231;50.746;4.272;2023-05-23T04:40:49;60.83;;;32.37;;
22129;SDS011;11231;50.746;4.272;2023-05-23T04:43:35;53.10;;;31.13;;
22129;SDS011;11231;50.746;4.272;2023-05-23T04:46:25;53.07;;;31.00;;
22129;SDS011;11231;50.746;4.272;2023-05-23T04:49:11;50.63;;;29.67;;
22129;SDS011;11231;50.746;4.272;2023-05-23T04:51:37;57.93;;;30.23;;
22129;SDS011;11231;50.746;4.272;2023-05-23T04:54:16;58.43;;;30.87;;
22129;SDS011;11231;50.746;4.272;2023-05-23T04:56:42;54.20;;;30.30;;
22129;SDS011;11231;50.746;4.272;2023-05-23T04:59:08;56.43;;;30.07;;
22129;SDS011;11231;50.746;4.272;2023-05-23T05:01:35;52.00;;;29.07;;
22129;SDS011;11231;50.746;4.272;2023-05-23T05:04:06;51.47;;;29.63;;
22129;SDS011;11231;50.746;4.272;2023-05-23T05:06:32;57.33;;;30.30;;
22129;SDS011;11231;50.746;4.272;2023-05-23T05:08:58;60.10;;;32.30;;
22129;SDS011;11231;50.746;4.272;2023-05-23T05:11:25;61.83;;;31.80;;
22129;SDS011;11231;50.746;4.272;2023-05-23T05:13:52;54.07;;;32.80;;
22129;SDS011;11231;50.746;4.272;2023-05-23T05:16:19;61.23;;;31.80;;
22129;SDS011;11231;50.746;4.272;2023-05-23T05:18:45;53.67;;;30.77;;
22129;SDS011;11231;50.746;4.272;2023-05-23T05:21:11;53.40;;;28.60;;
22129;SDS011;11231;50.746;4.272;2023-05-23T05:23:37;58.97;;;30.23;;
22129;SDS011;11231;50.746;4.272;2023-05-23T05:26:04;60.37;;;29.83;;
22129;SDS011;11231;50.746;4.272;2023-05-23T05:28:30;51.77;;;26.80;;
22129;SDS011;11231;50.746;4.272;2023-05-23T05:30:57;53.97;;;26.20;;
22129;SDS011;11231;50.746;4.272;2023-05-23T05:33:24;46.73;;;24.60;;
22129;SDS011;11231;50.746;4.272;2023-05-23T05:35:59;47.07;;;24.53;;
22129;SDS011;11231;50.746;4.272;2023-05-23T05:38:29;48.63;;;24.00;;
22129;SDS011;11231;50.746;4.272;2023-05-23T05:40:55;53.70;;;25.07;;
22129;SDS011;11231;50.746;4.272;2023-05-23T05:43:22;51.07;;;23.57;;
22129;SDS011;11231;50.746;4.272;2023-05-23T05:45:48;42.17;;;21.60;;
22129;SDS011;11231;50.746;4.272;2023-05-23T05:48:14;50.03;;;22.37;;
22129;SDS011;11231;50.746;4.272;2023-05-23T05:50:41;46.33;;;21.10;;
22129;SDS011;11231;50.746;4.272;2023-05-23T05:53:10;38.10;;;19.40;;
22129;SDS011;11231;50.746;4.272;2023-05-23T05:55:37;45.63;;;21.03;;
22129;SDS011;11231;50.746;4.272;2023-05-23T05:58:03;45.33;;;20.13;;
22129;SDS011;11231;50.746;4.272;2023-05-23T06:00:41;50.77;;;18.57;;
22129;SDS011;11231;50.746;4.272;2023-05-23T06:03:07;44.63;;;17.10;;
22129;SDS011;11231;50.746;4.272;2023-05-23T06:05:47;38.17;;;16.03;;
22129;SDS011;11231;50.746;4.272;2023-05-23T06:08:13;38.10;;;16.03;;
22129;SDS011;11231;50.746;4.272;2023-05-23T06:10:38;44.50;;;16.70;;
22129;SDS011;11231;50.746;4.272;2023-05-23T06:13:04;46.13;;;16.13;;
22129;SDS011;11231;50.746;4.272;2023-05-23T06:15:31;42.73;;;15.33;;
22129;SDS011;11231;50.746;4.272;2023-05-23T06:17:57;47.60;;;17.17;;
22129;SDS011;11231;50.746;4.272;2023-05-23T06:20:24;45.87;;;17.37;;
22129;SDS011;11231;50.746;4.272;2023-05-23T06:22:51;42.73;;;16.03;;
22129;SDS011;11231;50.746;4.272;2023-05-23T06:25:17;42.93;;;15.63;;
22129;SDS011;11231;50.746;4.272;2023-05-23T06:27:46;46.80;;;15.90;;
22129;SDS011;11231;50.746;4.272;2023-05-23T06:30:12;44.07;;;16.03;;
22129;SDS011;11231;50.746;4.272;2023-05-23T06:32:39;40.90;;;15.90;;
22129;SDS011;11231;50.746;4.272;2023-05-23T06:35:05;48.93;;;16.00;;
22129;SDS011;11231;50.746;4.272;2023-05-23T06:37:32;52.47;;;16.67;;
22129;SDS011;11231;50.746;4.272;2023-05-23T06:39:58;48.93;;;18.03;;
22129;SDS011;11231;50.746;4.272;2023-05-23T06:42:25;41.03;;;17.07;;
22129;SDS011;11231;50.746;4.272;2023-05-23T06:45:10;56.40;;;17.37;;
22129;SDS011;11231;50.746;4.272;2023-05-23T06:47:36;44.23;;;17.70;;
22129;SDS011;11231;50.746;4.272;2023-05-23T06:50:02;47.83;;;16.33;;
22129;SDS011;11231;50.746;4.272;2023-05-23T06:52:30;42.87;;;15.70;;
22129;SDS011;11231;50.746;4.272;2023-05-23T06:54:57;49.47;;;16.63;;
22129;SDS011;11231;50.746;4.272;2023-05-23T06:57:23;36.93;;;14.70;;
22129;SDS011;11231;50.746;4.272;2023-05-23T06:59:50;42.13;;;14.97;;
22129;SDS011;11231;50.746;4.272;2023-05-23T07:02:15;32.73;;;12.63;;
22129;SDS011;11231;50.746;4.272;2023-05-23T07:04:42;34.83;;;13.60;;
22129;SDS011;11231;50.746;4.272;2023-05-23T07:07:15;48.17;;;13.43;;
22129;SDS011;11231;50.746;4.272;2023-05-23T07:09:42;28.37;;;11.97;;
22129;SDS011;11231;50.746;4.272;2023-05-23T07:12:13;39.00;;;12.13;;
22129;SDS011;11231;50.746;4.272;2023-05-23T07:14:41;27.90;;;10.87;;
22129;SDS011;11231;50.746;4.272;2023-05-23T07:17:09;29.40;;;11.03;;
22129;SDS011;11231;50.746;4.272;2023-05-23T07:19:36;30.17;;;10.10;;
22129;SDS011;11231;50.746;4.272;2023-05-23T07:22:02;28.30;;;9.77;;
22129;SDS011;11231;50.746;4.272;2023-05-23T07:24:30;25.73;;;8.90;;
22129;SDS011;11231;50.746;4.272;2023-05-23T07:26:56;24.57;;;8.57;;
22129;SDS011;11231;50.746;4.272;2023-05-23T07:29:24;21.77;;;8.43;;
22129;SDS011;11231;50.746;4.272;2023-05-23T07:31:51;21.00;;;7.53;;
22129;SDS011;11231;50.746;4.272;2023-05-23T07:34:19;20.43;;;8.13;;
22129;SDS011;11231;50.746;4.272;2023-05-23T07:36:51;26.33;;;9.20;;
22129;SDS011;11231;50.746;4.272;2023-05-23T07:39:19;27.73;;;9.60;;
22129;SDS011;11231;50.746;4.272;2023-05-23T07:41:48;28.50;;;11.03;;
22129;SDS011;11231;50.746;4.272;2023-05-23T07:44:15;35.00;;;13.13;;
22129;SDS011;11231;50.746;4.272;2023-05-23T07:46:42;29.53;;;13.43;;
22129;SDS011;11231;50.746;4.272;2023-05-23T07:49:08;20.73;;;10.97;;
22129;SDS011;11231;50.746;4.272;2023-05-23T07:51:34;21.27;;;9.13;;
22129;SDS011;11231;50.746;4.272;2023-05-23T07:54:01;20.80;;;8.47;;
22129;SDS011;11231;50.746;4.272;2023-05-23T07:56:27;17.83;;;7.47;;
22129;SDS011;11231;50.746;4.272;2023-05-23T07:58:53;18.90;;;6.83;;
22129;SDS011;11231;50.746;4.272;2023-05-23T08:01:20;27.20;;;6.83;;
22129;SDS011;11231;50.746;4.272;2023-05-23T08:04:06;23.17;;;7.27;;
22129;SDS011;11231;50.746;4.272;2023-05-23T08:06:43;23.13;;;7.43;;
22129;SDS011;11231;50.746;4.272;2023-05-23T08:09:11;29.07;;;7.83;;
22129;SDS011;11231;50.746;4.272;2023-05-23T08:11:42;30.90;;;8.03;;
22129;SDS011;11231;50.746;4.272;2023-05-23T08:14:09;26.03;;;7.30;;
22129;SDS011;11231;50.746;4.272;2023-05-23T08:16:35;26.53;;;7.50;;
22129;SDS011;11231;50.746;4.272;2023-05-23T08:19:02;23.37;;;7.53;;
22129;SDS011;11231;50.746;4.272;2023-05-23T08:21:28;23.87;;;7.13;;
22129;SDS011;11231;50.746;4.272;2023-05-23T08:23:53;22.17;;;7.40;;
22129;SDS011;11231;50.746;4.272;2023-05-23T08:26:19;27.67;;;7.90;;
22129;SDS011;11231;50.746;4.272;2023-05-23T08:28:46;23.03;;;7.80;;
22129;SDS011;11231;50.746;4.272;2023-05-23T08:31:12;26.23;;;7.77;;
22129;SDS011;11231;50.746;4.272;2023-05-23T08:33:39;23.17;;;8.10;;
22129;SDS011;11231;50.746;4.272;2023-05-23T08:36:05;26.73;;;7.83;;
22129;SDS011;11231;50.746;4.272;2023-05-23T08:38:31;26.47;;;8.00;;
22129;SDS011;11231;50.746;4.272;2023-05-23T08:41:06;29.87;;;7.73;;
22129;SDS011;11231;50.746;4.272;2023-05-23T08:43:40;25.50;;;8.00;;
22129;SDS011;11231;50.746;4.272;2023-05-23T08:46:10;25.17;;;7.40;;
22129;SDS011;11231;50.746;4.272;2023-05-23T08:48:37;20.13;;;8.07;;
22129;SDS011;11231;50.746;4.272;2023-05-23T08:51:05;17.83;;;7.67;;
22129;SDS011;11231;50.746;4.272;2023-05-23T08:53:33;18.80;;;7.87;;
22129;SDS011;11231;50.746;4.272;2023-05-23T08:56:04;17.70;;;6.73;;
22129;SDS011;11231;50.746;4.272;2023-05-23T08:58:40;20.83;;;8.20;;
22129;SDS011;11231;50.746;4.272;2023-05-23T09:01:08;20.13;;;7.53;;
22129;SDS011;11231;50.746;4.272;2023-05-23T09:03:35;25.37;;;8.20;;
22129;SDS011;11231;50.746;4.272;2023-05-23T09:06:08;20.60;;;8.30;;
22129;SDS011;11231;50.746;4.272;2023-05-23T09:08:35;20.97;;;7.67;;
22129;SDS011;11231;50.746;4.272;2023-05-23T09:11:02;23.03;;;7.33;;
22129;SDS011;11231;50.746;4.272;2023-05-23T09:13:32;24.53;;;7.57;;
22129;SDS011;11231;50.746;4.272;2023-05-23T09:16:02;18.67;;;7.10;;
22129;SDS011;11231;50.746;4.272;2023-05-23T09:18:40;24.50;;;8.20;;
22129;SDS011;11231;50.746;4.272;2023-05-23T09:21:08;18.17;;;8.10;;
22129;SDS011;11231;50.746;4.272;2023-05-23T09:23:40;21.40;;;8.30;;
22129;SDS011;11231;50.746;4.272;2023-05-23T09:26:10;25.43;;;8.60;;
22129;SDS011;11231;50.746;4.272;2023-05-23T09:28:41;29.13;;;9.80;;
22129;SDS011;11231;50.746;4.272;2023-05-23T09:31:07;26.00;;;10.17;;
22129;SDS011;11231;50.746;4.272;2023-05-23T09:36:12;25.03;;;10.80;;
22129;SDS011;11231;50.746;4.272;2023-05-23T09:38:39;24.03;;;11.13;;
22129;SDS011;11231;50.746;4.272;2023-05-23T09:41:08;21.07;;;11.50;;
22129;SDS011;11231;50.746;4.272;2023-05-23T09:43:48;25.13;;;11.63;;
22129;SDS011;11231;50.746;4.272;2023-05-23T09:46:18;19.40;;;10.87;;
22129;SDS011;11231;50.746;4.272;2023-05-23T09:48:46;19.73;;;10.40;;
22129;SDS011;11231;50.746;4.272;2023-05-23T09:51:12;25.50;;;10.03;;
22129;SDS011;11231;50.746;4.272;2023-05-23T09:53:39;23.83;;;10.57;;
22129;SDS011;11231;50.746;4.272;2023-05-23T09:56:05;20.57;;;9.10;;
22129;SDS011;11231;50.746;4.272;2023-05-23T09:58:35;23.47;;;8.40;;
22129;SDS011;11231;50.746;4.272;2023-05-23T10:01:05;23.00;;;7.67;;
22129;SDS011;11231;50.746;4.272;2023-05-23T10:03:35;23.37;;;7.47;;
22129;SDS011;11231;50.746;4.272;2023-05-23T10:08:54;16.83;;;6.73;;
22129;SDS011;11231;50.746;4.272;2023-05-23T10:13:58;23.77;;;8.83;;
22129;SDS011;11231;50.746;4.272;2023-05-23T10:22:05;19.73;;;10.70;;
22129;SDS011;11231;50.746;4.272;2023-05-23T10:24:34;23.70;;;9.73;;
22129;SDS011;11231;50.746;4.272;2023-05-23T10:27:01;20.53;;;8.70;;
22129;SDS011;11231;50.746;4.272;2023-05-23T10:29:28;16.53;;;8.60;;
22129;SDS011;11231;50.746;4.272;2023-05-23T10:31:58;18.37;;;9.03;;
22129;SDS011;11231;50.746;4.272;2023-05-23T10:34:31;22.73;;;9.53;;
22129;SDS011;11231;50.746;4.272;2023-05-23T10:37:03;18.83;;;9.83;;
22129;SDS011;11231;50.746;4.272;2023-05-23T10:39:45;20.73;;;9.33;;
22129;SDS011;11231;50.746;4.272;2023-05-23T10:42:22;17.23;;;9.50;;
22129;SDS011;11231;50.746;4.272;2023-05-23T10:45:15;16.83;;;9.63;;
22129;SDS011;11231;50.746;4.272;2023-05-23T10:47:48;15.07;;;9.03;;
22129;SDS011;11231;50.746;4.272;2023-05-23T10:53:25;20.80;;;10.10;;
22129;SDS011;11231;50.746;4.272;2023-05-23T10:55:56;15.63;;;7.60;;
22129;SDS011;11231;50.746;4.272;2023-05-23T10:58:22;17.93;;;6.80;;
22129;SDS011;11231;50.746;4.272;2023-05-23T11:03:36;14.23;;;6.33;;
22129;SDS011;11231;50.746;4.272;2023-05-23T11:06:03;14.70;;;5.37;;
22129;SDS011;11231;50.746;4.272;2023-05-23T11:08:36;13.77;;;5.03;;
22129;SDS011;11231;50.746;4.272;2023-05-23T11:11:07;11.73;;;5.10;;
22129;SDS011;11231;50.746;4.272;2023-05-23T11:18:51;16.43;;;4.70;;
22129;SDS011;11231;50.746;4.272;2023-05-23T11:21:41;16.07;;;4.60;;
22129;SDS011;11231;50.746;4.272;2023-05-23T11:24:09;15.30;;;4.73;;
22129;SDS011;11231;50.746;4.272;2023-05-23T11:26:35;14.63;;;4.40;;
22129;SDS011;11231;50.746;4.272;2023-05-23T11:29:00;11.90;;;4.40;;
22129;SDS011;11231;50.746;4.272;2023-05-23T11:31:28;13.63;;;4.10;;
22129;SDS011;11231;50.746;4.272;2023-05-23T11:33:54;14.47;;;4.10;;
22129;SDS011;11231;50.746;4.272;2023-05-23T11:36:20;11.73;;;3.30;;
22129;SDS011;11231;50.746;4.272;2023-05-23T11:38:48;16.90;;;4.03;;
22129;SDS011;11231;50.746;4.272;2023-05-23T11:41:16;17.07;;;3.87;;
22129;SDS011;11231;50.746;4.272;2023-05-23T11:43:49;13.07;;;3.50;;
22129;SDS011;11231;50.746;4.272;2023-05-23T11:46:16;13.17;;;3.83;;
22129;SDS011;11231;50.746;4.272;2023-05-23T11:48:45;16.00;;;3.80;;
22129;SDS011;11231;50.746;4.272;2023-05-23T11:51:11;17.60;;;3.80;;
22129;SDS011;11231;50.746;4.272;2023-05-23T11:53:38;16.10;;;4.70;;
22129;SDS011;11231;50.746;4.272;2023-05-23T11:56:04;17.00;;;3.87;;
22129;SDS011;11231;50.746;4.272;2023-05-23T11:58:33;16.77;;;4.40;;
22129;SDS011;11231;50.746;4.272;2023-05-23T12:01:00;17.50;;;4.53;;
22129;SDS011;11231;50.746;4.272;2023-05-23T12:03:33;15.70;;;3.80;;
22129;SDS011;11231;50.746;4.272;2023-05-23T12:06:08;19.47;;;3.80;;
22129;SDS011;11231;50.746;4.272;2023-05-23T12:08:34;16.37;;;3.90;;
22129;SDS011;11231;50.746;4.272;2023-05-23T12:11:00;16.80;;;4.13;;
22129;SDS011;11231;50.746;4.272;2023-05-23T12:13:27;20.27;;;4.33;;
22129;SDS011;11231;50.746;4.272;2023-05-23T12:16:00;14.47;;;3.83;;
22129;SDS011;11231;50.746;4.272;2023-05-23T12:18:27;15.00;;;3.93;;
22129;SDS011;11231;50.746;4.272;2023-05-23T12:20:53;19.37;;;4.60;;
22129;SDS011;11231;50.746;4.272;2023-05-23T12:23:20;19.03;;;4.33;;
22129;SDS011;11231;50.746;4.272;2023-05-23T12:25:51;21.20;;;4.03;;
22129;SDS011;11231;50.746;4.272;2023-05-23T12:28:17;15.57;;;3.57;;
22129;SDS011;11231;50.746;4.272;2023-05-23T12:30:44;15.90;;;3.30;;
22129;SDS011;11231;50.746;4.272;2023-05-23T12:33:10;20.90;;;4.50;;
22129;SDS011;11231;50.746;4.272;2023-05-23T12:35:36;20.93;;;4.40;;
22129;SDS011;11231;50.746;4.272;2023-05-23T12:38:06;25.90;;;4.83;;
22129;SDS011;11231;50.746;4.272;2023-05-23T12:40:32;34.17;;;6.23;;
22129;SDS011;11231;50.746;4.272;2023-05-23T12:42:58;24.47;;;5.23;;
22129;SDS011;11231;50.746;4.272;2023-05-23T12:45:31;21.27;;;4.40;;
22129;SDS011;11231;50.746;4.272;2023-05-23T12:48:03;20.57;;;4.20;;
22129;SDS011;11231;50.746;4.272;2023-05-23T12:50:31;17.43;;;4.33;;
22129;SDS011;11231;50.746;4.272;2023-05-23T12:52:57;12.90;;;3.60;;
22129;SDS011;11231;50.746;4.272;2023-05-23T12:55:23;18.73;;;4.13;;
22129;SDS011;11231;50.746;4.272;2023-05-23T12:57:49;19.57;;;4.33;;
22129;SDS011;11231;50.746;4.272;2023-05-23T13:00:15;16.57;;;4.00;;
22129;SDS011;11231;50.746;4.272;2023-05-23T13:02:41;23.20;;;3.97;;
22129;SDS011;11231;50.746;4.272;2023-05-23T13:05:07;20.27;;;4.07;;
22129;SDS011;11231;50.746;4.272;2023-05-23T13:07:35;17.73;;;4.10;;
22129;SDS011;11231;50.746;4.272;2023-05-23T13:10:02;23.43;;;3.93;;
22129;SDS011;11231;50.746;4.272;2023-05-23T13:12:27;22.70;;;4.07;;
22129;SDS011;11231;50.746;4.272;2023-05-23T13:14:53;18.63;;;3.93;;
22129;SDS011;11231;50.746;4.272;2023-05-23T13:17:19;18.13;;;3.77;;
22129;SDS011;11231;50.746;4.272;2023-05-23T13:19:45;17.70;;;4.63;;
22129;SDS011;11231;50.746;4.272;2023-05-23T13:22:11;21.67;;;4.30;;
22129;SDS011;11231;50.746;4.272;2023-05-23T13:24:37;15.90;;;3.90;;
22129;SDS011;11231;50.746;4.272;2023-05-23T13:27:04;18.37;;;3.97;;
22129;SDS011;11231;50.746;4.272;2023-05-23T13:29:31;23.60;;;4.10;;
22129;SDS011;11231;50.746;4.272;2023-05-23T13:31:57;22.80;;;4.20;;
22129;SDS011;11231;50.746;4.272;2023-05-23T13:34:24;23.30;;;4.50;;
22129;SDS011;11231;50.746;4.272;2023-05-23T13:36:51;20.27;;;4.97;;
22129;SDS011;11231;50.746;4.272;2023-05-23T13:39:17;20.27;;;4.63;;
22129;SDS011;11231;50.746;4.272;2023-05-23T13:41:45;22.10;;;4.60;;
22129;SDS011;11231;50.746;4.272;2023-05-23T13:44:11;22.80;;;4.20;;
22129;SDS011;11231;50.746;4.272;2023-05-23T13:46:37;20.33;;;4.43;;
22129;SDS011;11231;50.746;4.272;2023-05-23T13:49:03;20.10;;;4.63;;
22129;SDS011;11231;50.746;4.272;2023-05-23T13:51:29;18.97;;;4.60;;
22129;SDS011;11231;50.746;4.272;2023-05-23T13:53:56;24.73;;;4.40;;
22129;SDS011;11231;50.746;4.272;2023-05-23T13:56:22;24.43;;;5.03;;
22129;SDS011;11231;50.746;4.272;2023-05-23T13:58:52;20.17;;;4.13;;
22129;SDS011;11231;50.746;4.272;2023-05-23T14:01:17;20.87;;;4.83;;
22129;SDS011;11231;50.746;4.272;2023-05-23T14:03:43;22.33;;;4.50;;
22129;SDS011;11231;50.746;4.272;2023-05-23T14:06:09;21.83;;;4.70;;
22129;SDS011;11231;50.746;4.272;2023-05-23T14:08:35;18.63;;;4.27;;
22129;SDS011;11231;50.746;4.272;2023-05-23T14:11:01;28.97;;;5.30;;
22129;SDS011;11231;50.746;4.272;2023-05-23T14:13:27;19.90;;;4.07;;
22129;SDS011;11231;50.746;4.272;2023-05-23T14:15:52;26.63;;;4.63;;
22129;SDS011;11231;50.746;4.272;2023-05-23T14:18:18;26.17;;;4.57;;
22129;SDS011;11231;50.746;4.272;2023-05-23T14:20:44;16.87;;;4.07;;
22129;SDS011;11231;50.746;4.272;2023-05-23T14:23:10;17.73;;;3.63;;
22129;SDS011;11231;50.746;4.272;2023-05-23T14:25:36;19.17;;;4.40;;
22129;SDS011;11231;50.746;4.272;2023-05-23T14:28:01;23.37;;;4.67;;
22129;SDS011;11231;50.746;4.272;2023-05-23T14:30:27;26.70;;;4.70;;
22129;SDS011;11231;50.746;4.272;2023-05-23T14:32:53;20.37;;;4.30;;
22129;SDS011;11231;50.746;4.272;2023-05-23T14:35:19;23.20;;;4.67;;
22129;SDS011;11231;50.746;4.272;2023-05-23T14:37:46;19.53;;;4.17;;
22129;SDS011;11231;50.746;4.272;2023-05-23T14:40:18;16.20;;;3.60;;
22129;SDS011;11231;50.746;4.272;2023-05-23T14:42:44;19.60;;;3.87;;
22129;SDS011;11231;50.746;4.272;2023-05-23T14:45:10;17.07;;;3.97;;
22129;SDS011;11231;50.746;4.272;2023-05-23T14:47:36;14.37;;;3.43;;
22129;SDS011;11231;50.746;4.272;2023-05-23T14:50:02;19.87;;;4.17;;
22129;SDS011;11231;50.746;4.272;2023-05-23T14:52:28;17.23;;;4.03;;
22129;SDS011;11231;50.746;4.272;2023-05-23T14:54:54;24.17;;;4.13;;
22129;SDS011;11231;50.746;4.272;2023-05-23T14:57:19;28.23;;;4.63;;
22129;SDS011;11231;50.746;4.272;2023-05-23T14:59:45;24.53;;;4.17;;
22129;SDS011;11231;50.746;4.272;2023-05-23T15:02:11;19.63;;;4.03;;
22129;SDS011;11231;50.746;4.272;2023-05-23T15:04:37;21.33;;;4.17;;
22129;SDS011;11231;50.746;4.272;2023-05-23T15:07:03;17.20;;;3.63;;